Eurodam — PHOS — position and weather

sailwx.info

Track history (hours):
 
Tides and Currents Weather Stations Pressure Air Temp Water Temp Dewpoint Dewpoint Depression Visibility Wind Speed Wind Dir Waves Ship Positions

Eurodam (Netherlands)

Last reported at 2014-Oct-23 01:00 UTC. Time now 2014-Oct-23 02:17 UTC.
Position N 41°54' W 069°48'.

Length 285 m; draft 8 m.

Type: Ship. MMSI: 245206000.

Wind from 050 at 50 knots

Barometer 1006.4 mb
Air temperature 13.6 ° C
Dewpoint 12.5 ° C
Water temperature 13.9 ° C

Date/timePositionNaut miles runAvg speedWind from/ knotsBaromVisibWave heightAir tempDewpointWater temp
2014-Oct-23 01:00N 41°54' W 069°48'5014.6 050 / 501006.4 13.612.513.9
2014-Oct-22 21:33N 42°21' W 070°45'9 8.7
2014-Oct-22 20:32N 42°20' W 070°57'3 0.3
2014-Oct-22 11:23N 42°20' W 071°00'1011.4
2014-Oct-22 10:31N 42°25' W 070°48'277 8.0
2014-Oct-21 00:00N 43°36' W 064°42'7018.4 290 / 211015.710.8 10.7 4.614.9
2014-Oct-20 20:11N 44°22' W 063°28'1116.7
2014-Oct-20 19:33N 44°32' W 063°31'7 5.7
2014-Oct-20 18:21N 44°39' W 063°34'0 0.0
2014-Oct-20 17:24N 44°39' W 063°34'0 0.0
2014-Oct-20 16:33N 44°39' W 063°34'0 0.0
2014-Oct-20 15:26N 44°39' W 063°34'0 0.0
2014-Oct-20 14:31N 44°39' W 063°34'0 0.0
2014-Oct-20 13:30N 44°39' W 063°34'0 0.0
2014-Oct-20 12:18N 44°39' W 063°34'0 0.0
2014-Oct-20 11:33N 44°39' W 063°34'3 2.6
2014-Oct-20 10:33N 44°36' W 063°32'1212.1
2014-Oct-20 09:33N 44°28' W 063°20'12316.2
2014-Oct-20 02:00N 45°06' W 060°36'3216.0 130 / 91001.1 13.812.714.5
2014-Oct-20 00:00N 45°30' W 060°06'   220 / 151004.4 14.913.613.4
Track history (hours):
 
Tides and Currents Weather Stations Pressure Air Temp Water Temp Dewpoint Dewpoint Depression Visibility Wind Speed Wind Dir Waves Ship Positions

Eurodam (Netherlands)

Last reported at 2014-Oct-23 01:00 UTC. Time now 2014-Oct-23 02:17 UTC.
Position N 41°54' W 069°48'.

Length 285 m; draft 8 m.

Type: Ship. MMSI: 245206000.

Wind from 050 at 50 knots

Barometer 1006.4 mb
Air temperature 13.6 ° C
Dewpoint 12.5 ° C
Water temperature 13.9 ° C

Date/timePositionNaut miles runAvg speedWind from/ knotsBaromVisibWave heightAir tempDewpointWater temp
2014-Oct-23 01:00N 41°54' W 069°48'5014.6 050 / 501006.4 13.612.513.9
2014-Oct-22 21:33N 42°21' W 070°45'9 8.7
2014-Oct-22 20:32N 42°20' W 070°57'3 0.3
2014-Oct-22 11:23N 42°20' W 071°00'1011.4
2014-Oct-22 10:31N 42°25' W 070°48'277 8.0
2014-Oct-21 00:00N 43°36' W 064°42'7018.4 290 / 211015.710.8 10.7 4.614.9
2014-Oct-20 20:11N 44°22' W 063°28'1116.7
2014-Oct-20 19:33N 44°32' W 063°31'7 5.7
2014-Oct-20 18:21N 44°39' W 063°34'0 0.0
2014-Oct-20 17:24N 44°39' W 063°34'0 0.0
2014-Oct-20 16:33N 44°39' W 063°34'0 0.0
2014-Oct-20 15:26N 44°39' W 063°34'0 0.0
2014-Oct-20 14:31N 44°39' W 063°34'0 0.0
2014-Oct-20 13:30N 44°39' W 063°34'0 0.0
2014-Oct-20 12:18N 44°39' W 063°34'0 0.0
2014-Oct-20 11:33N 44°39' W 063°34'3 2.6
2014-Oct-20 10:33N 44°36' W 063°32'1212.1
2014-Oct-20 09:33N 44°28' W 063°20'12316.2
2014-Oct-20 02:00N 45°06' W 060°36'3216.0 130 / 91001.1 13.812.714.5
2014-Oct-20 00:00N 45°30' W 060°06'   220 / 151004.4 14.913.613.4

Dump ship's entire track history